createdAt,value
2023-04-28T00:00:05.829Z,7.68
2023-04-28T00:02:32.731Z,7.55
2023-04-28T00:04:59.479Z,8.98
2023-04-28T00:07:26.839Z,6.10
2023-04-28T00:09:53.290Z,7.15
2023-04-28T00:12:19.725Z,6.78
2023-04-28T00:14:46.376Z,7.57
2023-04-28T00:17:12.861Z,8.23
2023-04-28T00:19:39.410Z,7.80
2023-04-28T00:22:29.976Z,8.35
2023-04-28T00:24:56.992Z,7.68
2023-04-28T00:27:23.432Z,8.25
2023-04-28T00:29:49.863Z,8.88
2023-04-28T00:32:16.597Z,9.00
2023-04-28T00:34:43.003Z,8.65
2023-04-28T00:37:09.551Z,7.03
2023-04-28T00:39:36.140Z,11.10
2023-04-28T00:42:04.216Z,10.45
2023-04-28T00:44:33.566Z,12.45
2023-04-28T00:47:00.230Z,11.95
2023-04-28T00:49:26.713Z,10.35
2023-04-28T00:51:53.123Z,14.65
2023-04-28T00:54:19.697Z,23.20
2023-04-28T00:56:49.237Z,25.83
2023-04-28T00:59:16.125Z,31.75
2023-04-28T01:01:42.833Z,33.25
2023-04-28T01:04:09.526Z,28.00
2023-04-28T01:06:36.644Z,22.92
2023-04-28T01:09:05.893Z,30.63
2023-04-28T01:11:32.275Z,27.70
2023-04-28T01:14:00.387Z,30.30
2023-04-28T01:16:30.323Z,21.90
2023-04-28T01:18:56.870Z,25.00
2023-04-28T01:21:32.458Z,13.85
2023-04-28T01:23:59.342Z,18.88
2023-04-28T01:26:25.822Z,20.67
2023-04-28T01:28:52.575Z,27.80
2023-04-28T01:31:19.148Z,26.48
2023-04-28T01:33:45.781Z,19.13
2023-04-28T01:36:12.220Z,11.05
2023-04-28T01:38:38.714Z,10.18
2023-04-28T01:41:05.457Z,13.00
2023-04-28T01:43:31.892Z,23.48
2023-04-28T01:45:59.879Z,22.85
2023-04-28T01:48:26.406Z,12.73
2023-04-28T01:50:55.146Z,24.00
2023-04-28T01:53:21.463Z,14.13
2023-04-28T01:55:51.676Z,20.85
2023-04-28T01:58:18.007Z,10.43
2023-04-28T02:00:44.562Z,19.52
2023-04-28T02:03:13.511Z,22.15
2023-04-28T02:05:42.597Z,11.45
2023-04-28T02:08:12.027Z,19.13
2023-04-28T02:10:44.088Z,19.98
2023-04-28T02:13:10.524Z,17.38
2023-04-28T02:15:40.639Z,17.38
2023-04-28T02:18:10.248Z,18.00
2023-04-28T02:20:36.678Z,10.50
2023-04-28T02:23:03.330Z,9.32
2023-04-28T02:25:29.852Z,16.48
2023-04-28T02:27:57.486Z,19.77
2023-04-28T02:30:23.948Z,14.57
2023-04-28T02:32:50.410Z,17.63
2023-04-28T02:35:16.973Z,7.78
2023-04-28T02:37:43.424Z,17.15
2023-04-28T02:40:10.271Z,16.90
2023-04-28T02:42:36.748Z,19.08
2023-04-28T02:45:05.588Z,15.55
2023-04-28T02:47:35.044Z,13.82
2023-04-28T02:50:01.621Z,9.60
2023-04-28T02:52:28.054Z,10.13
2023-04-28T02:54:57.321Z,11.88
2023-04-28T02:57:27.054Z,16.73
2023-04-28T02:59:53.847Z,13.23
2023-04-28T03:02:23.886Z,15.60
2023-04-28T03:04:50.550Z,12.73
2023-04-28T03:07:22.354Z,19.13
2023-04-28T03:09:49.026Z,21.60
2023-04-28T03:12:15.503Z,9.68
2023-04-28T03:14:41.988Z,18.35
2023-04-28T03:17:08.347Z,21.30
2023-04-28T03:19:34.835Z,20.77
2023-04-28T03:22:01.237Z,24.50
2023-04-28T03:24:27.786Z,22.67
2023-04-28T03:26:56.887Z,22.88
2023-04-28T03:29:25.400Z,21.15
2023-04-28T03:31:57.530Z,23.58
2023-04-28T03:34:26.693Z,22.85
2023-04-28T03:36:53.148Z,22.67
2023-04-28T03:39:21.368Z,27.40
2023-04-28T03:41:47.843Z,15.35
2023-04-28T03:44:14.681Z,20.83
2023-04-28T03:46:41.273Z,21.67
2023-04-28T03:49:07.710Z,11.90
2023-04-28T03:51:34.461Z,21.23
2023-04-28T03:54:00.975Z,20.38
2023-04-28T03:56:30.462Z,26.05
2023-04-28T03:58:56.972Z,23.70
2023-04-28T04:01:23.847Z,30.27
2023-04-28T04:03:56.110Z,25.95
2023-04-28T04:06:24.993Z,14.20
2023-04-28T04:08:51.783Z,26.65
2023-04-28T04:11:18.235Z,22.25
2023-04-28T04:13:44.783Z,11.63
2023-04-28T04:16:11.562Z,27.23
2023-04-28T04:18:39.097Z,24.05
2023-04-28T04:21:07.980Z,29.95
2023-04-28T04:23:34.468Z,30.27
2023-04-28T04:26:00.904Z,16.10
2023-04-28T04:28:27.392Z,70.53
2023-04-28T04:30:53.855Z,64.75
2023-04-28T04:33:22.380Z,67.45
2023-04-28T04:35:48.930Z,65.82
2023-04-28T04:38:15.452Z,78.85
2023-04-28T04:40:41.892Z,84.80
2023-04-28T04:43:08.310Z,88.20
2023-04-28T04:45:34.761Z,73.65
2023-04-28T04:48:01.959Z,72.70
2023-04-28T04:50:31.180Z,72.78
2023-04-28T04:53:00.762Z,57.03
2023-04-28T04:55:27.404Z,80.53
2023-04-28T04:57:53.948Z,69.50
2023-04-28T05:00:20.441Z,66.43
2023-04-28T05:02:46.985Z,76.68
2023-04-28T05:07:46.207Z,72.22
2023-04-28T05:10:12.842Z,60.65
2023-04-28T05:12:39.220Z,71.07
2023-04-28T05:15:06.939Z,62.50
2023-04-28T05:17:33.742Z,74.32
2023-04-28T05:20:00.173Z,60.20
2023-04-28T05:22:29.273Z,70.50
2023-04-28T05:24:55.690Z,95.78
2023-04-28T05:27:22.247Z,85.50
2023-04-28T05:29:48.692Z,84.18
2023-04-28T05:32:15.284Z,86.85
2023-04-28T05:34:42.102Z,87.38
2023-04-28T05:37:08.655Z,88.80
2023-04-28T05:39:35.079Z,84.78
2023-04-28T05:42:04.369Z,93.22
2023-04-28T05:44:33.374Z,94.90
2023-04-28T05:46:59.822Z,76.40
2023-04-28T05:49:26.396Z,95.63
2023-04-28T05:51:52.931Z,11.18
2023-04-28T05:54:19.462Z,90.22
2023-04-28T05:56:46.114Z,93.55
2023-04-28T05:59:12.522Z,88.47
2023-04-28T06:01:39.044Z,88.57
2023-04-28T06:04:08.464Z,89.50
2023-04-28T06:06:35.245Z,58.53
2023-04-28T06:09:02.132Z,88.30
2023-04-28T06:11:28.596Z,88.53
2023-04-28T06:13:57.419Z,85.82
2023-04-28T06:16:23.902Z,90.20
2023-04-28T06:18:50.866Z,79.13
2023-04-28T06:21:17.469Z,88.88
2023-04-28T06:23:44.110Z,85.22
2023-04-28T06:26:10.980Z,87.07
2023-04-28T06:28:37.322Z,80.97
2023-04-28T06:31:03.753Z,90.88
2023-04-28T06:33:30.214Z,85.70
2023-04-28T06:35:56.761Z,96.28
2023-04-28T06:38:23.104Z,88.85
2023-04-28T06:40:49.426Z,91.90
2023-04-28T06:43:15.972Z,79.22
2023-04-28T06:45:42.353Z,90.28
2023-04-28T06:48:09.007Z,72.40
2023-04-28T06:50:35.473Z,83.32
2023-04-28T06:53:02.699Z,68.22
2023-04-28T06:55:29.038Z,78.82
2023-04-28T06:57:55.452Z,82.88
2023-04-28T07:00:22.019Z,77.55
2023-04-28T07:02:50.604Z,72.57
2023-04-28T07:05:17.177Z,75.05
2023-04-28T07:07:43.586Z,75.35
2023-04-28T07:10:11.294Z,66.28
2023-04-28T07:12:37.633Z,63.10
2023-04-28T07:15:04.100Z,60.75
2023-04-28T07:17:30.584Z,57.58
2023-04-28T07:19:56.976Z,57.80
2023-04-28T07:22:23.405Z,55.15
2023-04-28T07:24:49.774Z,60.33
2023-04-28T07:27:16.243Z,64.13
2023-04-28T07:29:42.756Z,54.97
2023-04-28T07:32:10.648Z,58.25
2023-04-28T07:34:37.443Z,55.92
2023-04-28T07:37:04.475Z,56.95
2023-04-28T07:39:31.720Z,55.90
2023-04-28T07:41:58.932Z,62.33
2023-04-28T07:44:25.408Z,55.95
2023-04-28T07:46:52.390Z,55.58
2023-04-28T07:49:18.819Z,53.15
2023-04-28T07:51:45.199Z,56.80
2023-04-28T07:54:11.910Z,57.10
2023-04-28T07:56:38.280Z,52.53
2023-04-28T07:59:04.647Z,49.08
2023-04-28T08:01:31.234Z,57.55
2023-04-28T08:03:57.802Z,95.43
2023-04-28T08:06:24.330Z,98.68
2023-04-28T08:08:50.698Z,96.43
2023-04-28T08:11:17.068Z,87.10
2023-04-28T08:13:43.386Z,96.82
2023-04-28T08:16:09.762Z,93.85
2023-04-28T08:18:37.333Z,94.80
2023-04-28T08:21:03.740Z,89.18
2023-04-28T08:23:31.953Z,91.75
2023-04-28T08:25:58.528Z,83.55
2023-04-28T08:28:24.907Z,78.55
2023-04-28T08:30:51.275Z,82.75
2023-04-28T08:33:17.631Z,82.10
2023-04-28T08:35:44.094Z,84.53
2023-04-28T08:38:14.081Z,80.32
2023-04-28T08:40:42.714Z,78.03
2023-04-28T08:43:10.701Z,86.20
2023-04-28T08:45:41.871Z,77.63
2023-04-28T08:48:12.436Z,79.57
2023-04-28T08:50:39.735Z,75.43
2023-04-28T08:53:07.268Z,75.15
2023-04-28T08:55:34.431Z,71.43
2023-04-28T08:58:01.879Z,82.15
2023-04-28T09:00:28.605Z,78.30
2023-04-28T09:02:55.072Z,78.10
2023-04-28T09:05:22.020Z,79.45
2023-04-28T09:07:51.944Z,77.25
2023-04-28T09:10:19.523Z,80.57
2023-04-28T09:12:46.627Z,72.90
2023-04-28T09:15:33.618Z,72.93
2023-04-28T09:18:01.101Z,76.80
2023-04-28T09:20:28.267Z,64.32
2023-04-28T09:22:55.970Z,75.13
2023-04-28T09:25:23.158Z,75.35
2023-04-28T09:27:49.819Z,73.90
2023-04-28T09:30:16.467Z,72.28
2023-04-28T09:32:43.021Z,77.10
2023-04-28T09:35:09.550Z,76.20
2023-04-28T09:37:36.709Z,76.63
2023-04-28T09:40:05.301Z,65.03
2023-04-28T09:42:34.931Z,79.50
2023-04-28T09:45:03.176Z,77.70
2023-04-28T09:47:30.846Z,80.28
2023-04-28T09:49:58.069Z,75.45
2023-04-28T09:52:24.727Z,66.13
2023-04-28T09:54:52.114Z,60.08
2023-04-28T09:57:22.251Z,34.78
2023-04-28T09:59:52.457Z,28.95
2023-04-28T10:02:41.935Z,32.83
2023-04-28T10:05:11.521Z,26.35
2023-04-28T10:07:39.135Z,27.50
2023-04-28T10:10:06.573Z,32.53
2023-04-28T10:12:32.881Z,23.45
2023-04-28T10:14:59.934Z,32.75
2023-04-28T10:17:28.212Z,17.02
2023-04-28T10:19:55.266Z,15.88
2023-04-28T10:22:24.510Z,14.85
2023-04-28T10:25:04.360Z,15.05
2023-04-28T10:27:31.466Z,15.23
2023-04-28T10:30:30.428Z,14.00
2023-04-28T10:33:06.288Z,14.95
2023-04-28T10:35:33.087Z,15.85
2023-04-28T10:38:03.146Z,16.83
2023-04-28T10:40:36.734Z,16.83
2023-04-28T10:43:03.727Z,15.73
2023-04-28T10:45:48.604Z,17.20
2023-04-28T10:48:15.586Z,17.27
2023-04-28T10:50:57.101Z,17.73
2023-04-28T10:53:47.082Z,16.05
2023-04-28T10:56:16.594Z,16.20
2023-04-28T10:58:43.821Z,17.83
2023-04-28T11:01:22.460Z,15.95
2023-04-28T11:04:03.555Z,16.98
2023-04-28T11:06:30.059Z,16.77
2023-04-28T11:08:57.707Z,18.55
2023-04-28T11:11:25.935Z,17.27
2023-04-28T11:13:54.260Z,17.77
2023-04-28T11:16:21.681Z,16.58
2023-04-28T11:18:55.173Z,18.13
2023-04-28T11:21:23.365Z,18.33
2023-04-28T11:23:49.735Z,18.02
2023-04-28T11:26:16.658Z,18.70
2023-04-28T11:28:46.869Z,18.73
2023-04-28T11:31:14.140Z,19.05
2023-04-28T11:33:41.627Z,20.25
2023-04-28T11:36:08.031Z,17.92
2023-04-28T11:38:47.055Z,18.48
2023-04-28T11:41:13.789Z,20.08
2023-04-28T11:43:46.983Z,18.30
2023-04-28T11:46:18.051Z,18.63
2023-04-28T11:48:44.666Z,17.45
2023-04-28T11:51:11.760Z,17.33
2023-04-28T11:53:44.186Z,16.40
2023-04-28T11:56:10.772Z,17.60
2023-04-28T11:58:37.114Z,16.90
2023-04-28T12:01:13.770Z,15.88
2023-04-28T12:03:46.130Z,14.02
2023-04-28T12:06:12.727Z,13.90
2023-04-28T12:08:39.073Z,11.77
2023-04-28T12:11:12.910Z,9.68
2023-04-28T12:13:39.806Z,10.68
2023-04-28T12:16:06.875Z,9.90
2023-04-28T12:18:39.241Z,9.18
2023-04-28T12:21:20.097Z,8.50
2023-04-28T12:23:46.586Z,6.95
2023-04-28T12:26:13.875Z,6.82
2023-04-28T12:28:41.697Z,7.38
2023-04-28T12:31:09.049Z,6.53
2023-04-28T12:33:38.609Z,7.03
2023-04-28T12:36:06.615Z,6.28
2023-04-28T12:38:32.957Z,7.10
2023-04-28T12:40:59.490Z,6.88
2023-04-28T12:43:27.154Z,7.35
2023-04-28T12:45:55.088Z,6.00
2023-04-28T12:48:22.354Z,11.73
2023-04-28T12:50:48.727Z,5.72
2023-04-28T12:53:15.114Z,5.95
2023-04-28T12:55:41.779Z,10.55
2023-04-28T12:58:08.580Z,16.50
2023-04-28T13:00:35.188Z,15.57
2023-04-28T13:03:01.889Z,11.90
2023-04-28T13:05:28.451Z,12.05
2023-04-28T13:07:54.802Z,12.20
2023-04-28T13:10:23.243Z,6.40
2023-04-28T13:12:49.641Z,9.52
2023-04-28T13:15:16.224Z,10.93
2023-04-28T13:17:42.756Z,10.50
2023-04-28T13:20:09.385Z,22.67
2023-04-28T13:22:35.919Z,26.80
2023-04-28T13:25:02.584Z,11.20
2023-04-28T13:27:30.467Z,10.90
2023-04-28T13:29:59.443Z,11.63
2023-04-28T13:34:52.305Z,8.35
2023-04-28T13:37:18.794Z,6.82
2023-04-28T13:39:45.204Z,7.07
2023-04-28T13:42:13.196Z,8.05
2023-04-28T13:44:39.580Z,8.07
2023-04-28T13:47:09.156Z,8.57
2023-04-28T13:49:37.311Z,7.85
2023-04-28T13:52:03.752Z,9.13
2023-04-28T13:54:30.104Z,7.90
2023-04-28T13:56:56.650Z,9.10
2023-04-28T13:59:22.961Z,8.80
2023-04-28T14:01:49.441Z,7.88
2023-04-28T14:04:16.084Z,54.53
2023-04-28T14:06:43.149Z,53.90
2023-04-28T14:09:09.847Z,56.25
2023-04-28T14:11:36.179Z,72.97
2023-04-28T14:14:02.795Z,74.35
2023-04-28T14:16:30.404Z,80.60
2023-04-28T14:18:56.799Z,79.15
2023-04-28T14:21:23.130Z,78.32
2023-04-28T14:23:49.485Z,79.47
2023-04-28T14:26:16.272Z,80.20
2023-04-28T14:28:42.743Z,81.85
2023-04-28T14:31:09.430Z,86.90
2023-04-28T14:33:36.713Z,90.50
2023-04-28T14:36:03.203Z,82.55
2023-04-28T14:38:30.723Z,91.75
2023-04-28T14:40:57.689Z,86.75
2023-04-28T14:43:24.141Z,90.95
2023-04-28T14:45:51.096Z,92.13
2023-04-28T14:48:17.584Z,98.55
2023-04-28T14:50:46.881Z,77.28
2023-04-28T14:53:13.364Z,84.43
2023-04-28T14:55:39.837Z,82.95
2023-04-28T14:58:06.304Z,101.20
2023-04-28T15:00:32.688Z,76.53
2023-04-28T15:02:59.231Z,90.30
2023-04-28T15:05:25.765Z,81.82
2023-04-28T15:07:52.565Z,79.43
2023-04-28T15:10:18.960Z,82.32
2023-04-28T15:12:45.594Z,90.15
2023-04-28T15:15:12.516Z,87.30
2023-04-28T15:17:39.130Z,83.70
2023-04-28T15:20:07.605Z,87.45
2023-04-28T15:22:34.002Z,84.15
2023-04-28T15:25:00.473Z,71.82
2023-04-28T15:27:26.881Z,73.55
2023-04-28T15:29:53.262Z,131.80
2023-04-28T15:32:19.597Z,91.72
2023-04-28T15:34:46.181Z,8.52
2023-04-28T15:37:32.657Z,84.43
2023-04-28T15:39:59.061Z,96.20
2023-04-28T15:42:25.441Z,109.70
2023-04-28T15:44:53.444Z,106.43
2023-04-28T15:47:20.254Z,109.68
2023-04-28T15:49:46.652Z,113.88
2023-04-28T15:52:13.007Z,141.55
2023-04-28T15:54:39.600Z,118.18
2023-04-28T15:57:06.110Z,136.10
2023-04-28T15:59:33.491Z,116.43
2023-04-28T16:01:59.874Z,126.88
2023-04-28T16:04:26.659Z,156.88
2023-04-28T16:06:53.133Z,140.80
2023-04-28T16:09:19.441Z,179.15
2023-04-28T16:11:47.075Z,148.90
2023-04-28T16:14:15.442Z,156.25
2023-04-28T16:16:42.125Z,161.70
2023-04-28T16:19:08.635Z,170.95
2023-04-28T16:21:35.001Z,135.73
2023-04-28T16:24:02.809Z,146.93
2023-04-28T16:26:29.151Z,191.80
2023-04-28T16:28:55.464Z,181.93
2023-04-28T16:31:21.766Z,181.05
2023-04-28T16:33:48.296Z,174.27
2023-04-28T16:36:14.632Z,174.85
2023-04-28T16:38:41.123Z,170.52
2023-04-28T16:41:07.545Z,142.07
2023-04-28T16:43:36.094Z,165.70
2023-04-28T16:46:03.091Z,166.77
2023-04-28T16:48:29.416Z,168.45
2023-04-28T16:50:56.033Z,165.77
2023-04-28T16:53:22.757Z,123.50
2023-04-28T16:55:49.103Z,134.00
2023-04-28T16:58:15.599Z,113.90
2023-04-28T17:00:41.952Z,119.57
2023-04-28T17:03:08.414Z,99.15
2023-04-28T17:05:35.080Z,87.25
2023-04-28T17:08:01.404Z,116.47
2023-04-28T17:10:27.796Z,104.47
2023-04-28T17:12:54.166Z,131.35
2023-04-28T17:15:20.533Z,115.95
2023-04-28T17:17:48.000Z,121.22
2023-04-28T17:20:18.163Z,130.23
2023-04-28T17:22:44.611Z,130.80
2023-04-28T17:25:12.017Z,133.43
2023-04-28T17:27:38.614Z,125.10
2023-04-28T17:30:06.358Z,124.82
2023-04-28T17:32:33.419Z,109.72
2023-04-28T17:34:59.995Z,118.00
2023-04-28T17:37:26.774Z,151.70
2023-04-28T17:39:53.440Z,120.22
2023-04-28T17:42:19.842Z,120.25
2023-04-28T17:44:46.292Z,101.05
2023-04-28T17:47:13.247Z,109.72
2023-04-28T17:49:41.796Z,114.07
2023-04-28T17:52:08.180Z,88.88
2023-04-28T17:54:34.583Z,92.03
2023-04-28T17:57:02.543Z,126.85
2023-04-28T17:59:28.960Z,90.65
2023-04-28T18:01:56.429Z,87.30
2023-04-28T18:04:22.892Z,89.25
2023-04-28T18:06:49.209Z,108.70
2023-04-28T18:09:15.763Z,86.25
2023-04-28T18:11:42.882Z,91.57
2023-04-28T18:14:09.322Z,82.95
2023-04-28T18:16:36.059Z,87.18
2023-04-28T18:19:02.733Z,74.47
2023-04-28T18:21:29.417Z,89.93
2023-04-28T18:23:55.962Z,88.82
2023-04-28T18:26:22.981Z,91.85
2023-04-28T18:28:49.533Z,101.95
2023-04-28T18:31:16.270Z,84.78
2023-04-28T18:33:45.504Z,78.65
2023-04-28T18:36:12.018Z,94.82
2023-04-28T18:38:38.457Z,101.85
2023-04-28T18:41:14.842Z,113.18
2023-04-28T18:43:42.379Z,95.72
2023-04-28T18:46:08.835Z,120.68
2023-04-28T18:48:35.478Z,104.90
2023-04-28T18:51:02.363Z,114.25
2023-04-28T18:53:29.256Z,111.35
2023-04-28T18:55:58.024Z,112.70
2023-04-28T18:58:25.176Z,105.10
2023-04-28T19:00:52.489Z,119.72
2023-04-28T19:03:19.676Z,122.10
2023-04-28T19:05:46.449Z,123.15
2023-04-28T19:08:13.186Z,38.38
2023-04-28T19:10:39.626Z,69.60
2023-04-28T19:13:06.138Z,50.60
2023-04-28T19:15:33.143Z,61.78
2023-04-28T19:17:59.628Z,64.97
2023-04-28T19:20:27.460Z,71.07
2023-04-28T19:22:53.869Z,49.35
2023-04-28T19:25:20.284Z,64.72
2023-04-28T19:27:46.779Z,46.25
2023-04-28T19:30:14.250Z,56.17
2023-04-28T19:32:41.446Z,52.25
2023-04-28T19:35:08.563Z,37.33
2023-04-28T19:37:35.753Z,50.60
2023-04-28T19:40:05.016Z,47.35
2023-04-28T19:42:32.088Z,37.63
2023-04-28T19:44:58.866Z,52.17
2023-04-28T19:47:35.599Z,44.20
2023-04-28T19:50:02.199Z,59.13
2023-04-28T19:52:28.585Z,39.03
2023-04-28T19:54:55.796Z,36.03
2023-04-28T19:57:22.455Z,55.92
2023-04-28T19:59:49.651Z,64.15
2023-04-28T20:02:16.552Z,67.20
2023-04-28T20:04:43.537Z,59.80
2023-04-28T20:07:10.807Z,72.00
2023-04-28T20:09:38.074Z,68.57
2023-04-28T20:12:05.560Z,73.97
2023-04-28T20:14:32.676Z,74.35
2023-04-28T20:16:59.112Z,73.65
2023-04-28T20:19:26.691Z,44.08
2023-04-28T20:21:53.325Z,43.83
2023-04-28T20:24:19.844Z,96.07
2023-04-28T20:26:46.396Z,82.05
2023-04-28T20:29:12.957Z,76.13
2023-04-28T20:31:39.934Z,57.17
2023-04-28T20:34:08.632Z,107.10
2023-04-28T20:36:35.404Z,117.20
2023-04-28T20:39:02.266Z,158.00
2023-04-28T20:41:28.656Z,99.72
2023-04-28T20:43:55.146Z,159.02
2023-04-28T20:46:22.185Z,112.93
2023-04-28T20:48:48.803Z,113.10
2023-04-28T20:51:15.923Z,98.10
2023-04-28T20:53:42.938Z,122.03
2023-04-28T20:56:09.418Z,119.85
2023-04-28T20:58:38.211Z,96.35
2023-04-28T21:01:07.269Z,105.78
2023-04-28T21:03:33.859Z,92.78
2023-04-28T21:06:00.537Z,131.50
2023-04-28T21:08:26.942Z,124.80
2023-04-28T21:10:53.516Z,56.17
2023-04-28T21:13:20.202Z,76.00
2023-04-28T21:15:47.150Z,135.05
2023-04-28T21:18:13.650Z,76.78
2023-04-28T21:20:40.116Z,86.80
2023-04-28T21:23:07.536Z,98.38
2023-04-28T21:25:33.914Z,97.90
2023-04-28T21:28:01.653Z,95.45
2023-04-28T21:30:28.521Z,83.30
2023-04-28T21:32:55.400Z,78.22
2023-04-28T21:35:25.057Z,87.35
2023-04-28T21:37:51.684Z,86.35
2023-04-28T21:40:21.247Z,76.88
2023-04-28T21:42:47.569Z,103.10
2023-04-28T21:45:14.147Z,85.25
2023-04-28T21:47:43.359Z,101.70
2023-04-28T21:50:10.050Z,90.95
2023-04-28T21:52:36.644Z,102.63
2023-04-28T21:55:03.384Z,109.65
2023-04-28T21:57:29.909Z,98.78
2023-04-28T21:59:56.384Z,77.43
2023-04-28T22:02:23.421Z,108.45
2023-04-28T22:04:50.371Z,131.57
2023-04-28T22:07:17.270Z,76.30
2023-04-28T22:09:44.068Z,98.25
2023-04-28T22:12:10.525Z,105.82
2023-04-28T22:14:41.037Z,78.43
2023-04-28T22:17:11.073Z,100.18
2023-04-28T22:19:37.673Z,65.03
2023-04-28T22:22:06.597Z,60.95
2023-04-28T22:24:33.448Z,81.18
2023-04-28T22:27:00.204Z,269.98
2023-04-28T22:29:26.783Z,93.03
2023-04-28T22:31:53.585Z,202.27
2023-04-28T22:34:19.989Z,207.30
2023-04-28T22:36:47.453Z,253.63
2023-04-28T22:39:13.923Z,155.15
2023-04-28T22:41:40.660Z,197.82
2023-04-28T22:44:09.190Z,269.83
2023-04-28T22:46:35.664Z,253.68
2023-04-28T22:49:02.315Z,202.95
2023-04-28T22:51:28.790Z,181.07
2023-04-28T22:53:55.872Z,191.80
2023-04-28T22:56:22.286Z,256.65
2023-04-28T22:58:48.751Z,188.50
2023-04-28T23:01:15.309Z,171.85
2023-04-28T23:03:42.158Z,218.63
2023-04-28T23:06:08.680Z,232.07
2023-04-28T23:08:35.562Z,241.88
2023-04-28T23:11:04.829Z,199.80
2023-04-28T23:13:31.225Z,289.67
2023-04-28T23:15:58.195Z,258.98
2023-04-28T23:18:25.821Z,162.35
2023-04-28T23:20:52.333Z,263.52
2023-04-28T23:23:18.769Z,216.68
2023-04-28T23:25:45.273Z,250.50
2023-04-28T23:28:11.852Z,212.93
2023-04-28T23:30:38.312Z,240.50
2023-04-28T23:33:05.075Z,293.63
2023-04-28T23:35:32.454Z,223.10
2023-04-28T23:37:58.805Z,228.25
2023-04-28T23:40:26.186Z,249.02
2023-04-28T23:42:55.189Z,259.10
2023-04-28T23:45:21.762Z,303.05
2023-04-28T23:47:49.482Z,245.88
2023-04-28T23:50:16.065Z,258.25
2023-04-28T23:52:43.907Z,175.27
2023-04-28T23:55:11.623Z,211.35
2023-04-28T23:57:38.933Z,266.38
